< < Back
Terminal Aerodrome Forecast


Current Version              Previous Versions:   1  2  3  4  5  6  7  8  9  

Terminal Aerodrome Forecast

425
FTUS42 KFFC 011900 AAA
TAFATL
TAF AMD
KATL 011943Z 0120/0224 08007KT P6SM VCSH SCT025 BKN035
      TEMPO 0120/0124 6SM -SHRA BR BKN025
     FM020000 08007KT P6SM VCSH SCT025 BKN070
     FM020700 07006KT 6SM BR BKN012
     FM020900 07005KT 6SM BR OVC009
     FM021400 07006KT P6SM VCSH BKN015
     FM021600 07006KT P6SM VCSH BKN035=

Latest METAR

112
SAUS70 KWBC 012200 RRK
MTRATL
METAR KATL 012152Z 09008KT 10SM SCT028 BKN035 26/19 A3004 RMK AO2 SLP163
T02560194


USA.gov is the U.S. government's official web portal to all federal, state and local government web resources and services.